createdAt,value
2018-12-12T00:00:59.338Z,13.37
2018-12-12T00:03:28.177Z,11.80
2018-12-12T00:05:57.019Z,15.47
2018-12-12T00:08:25.860Z,11.97
2018-12-12T00:10:54.749Z,10.47
2018-12-12T00:13:23.606Z,11.23
2018-12-12T00:15:52.472Z,12.83
2018-12-12T00:18:21.507Z,12.63
2018-12-12T00:20:50.371Z,11.80
2018-12-12T00:23:19.301Z,11.23
2018-12-12T00:25:48.206Z,12.20
2018-12-12T00:28:17.035Z,11.43
2018-12-12T00:30:45.895Z,11.33
2018-12-12T00:33:14.746Z,15.10
2018-12-12T00:35:43.602Z,13.07
2018-12-12T00:38:12.552Z,13.40
2018-12-12T00:40:41.404Z,14.40
2018-12-12T00:43:10.282Z,14.17
2018-12-12T00:45:39.157Z,15.17
2018-12-12T00:48:08.022Z,16.87
2018-12-12T00:50:36.892Z,14.53
2018-12-12T00:53:05.770Z,13.43
2018-12-12T00:55:34.714Z,15.00
2018-12-12T00:58:03.986Z,13.17
2018-12-12T01:00:32.986Z,13.90
2018-12-12T01:03:01.955Z,14.77
2018-12-12T01:05:30.913Z,14.87
2018-12-12T01:07:59.843Z,12.33
2018-12-12T01:10:28.801Z,13.90
2018-12-12T01:12:57.748Z,14.57
2018-12-12T01:15:26.711Z,13.37
2018-12-12T01:17:55.561Z,14.07
2018-12-12T01:20:24.436Z,15.60
2018-12-12T01:22:53.311Z,13.30
2018-12-12T01:25:22.232Z,12.67
2018-12-12T01:27:51.122Z,16.13
2018-12-12T01:30:19.998Z,14.90
2018-12-12T01:32:48.955Z,13.00
2018-12-12T01:35:17.756Z,13.97
2018-12-12T01:37:46.631Z,12.20
2018-12-12T01:40:15.451Z,13.30
2018-12-12T01:42:44.416Z,14.47
2018-12-12T01:45:13.230Z,11.53
2018-12-12T01:47:42.081Z,14.70
2018-12-12T01:50:10.932Z,11.93
2018-12-12T01:52:39.927Z,11.37
2018-12-12T01:55:08.796Z,13.37
2018-12-12T01:57:37.756Z,11.93
2018-12-12T02:00:06.683Z,12.60
2018-12-12T02:02:35.579Z,12.27
2018-12-12T02:05:04.670Z,12.40
2018-12-12T02:07:33.571Z,12.57
2018-12-12T02:10:02.435Z,12.40
2018-12-12T02:12:31.310Z,12.63
2018-12-12T02:15:00.191Z,14.73
2018-12-12T02:17:29.097Z,14.00
2018-12-12T02:19:58.044Z,13.13
2018-12-12T02:22:26.935Z,12.97
2018-12-12T02:24:55.824Z,12.17
2018-12-12T02:27:25.003Z,12.70
2018-12-12T02:29:53.878Z,12.30
2018-12-12T02:32:22.756Z,13.37
2018-12-12T02:34:52.007Z,14.00
2018-12-12T02:37:20.884Z,13.33
2018-12-12T02:39:49.753Z,12.93
2018-12-12T02:42:18.637Z,14.03
2018-12-12T02:44:47.514Z,14.03
2018-12-12T02:47:16.376Z,13.53
2018-12-12T02:49:45.229Z,12.37
2018-12-12T02:52:14.199Z,13.20
2018-12-12T02:54:43.113Z,14.13
2018-12-12T02:57:12.102Z,13.07
2018-12-12T02:59:40.978Z,12.70
2018-12-12T03:02:09.857Z,14.03
2018-12-12T03:04:38.734Z,12.67
2018-12-12T03:07:07.675Z,12.77
2018-12-12T03:09:36.531Z,12.77
2018-12-12T03:12:05.373Z,12.67
2018-12-12T03:14:34.288Z,12.27
2018-12-12T03:17:05.275Z,12.43
2018-12-12T03:19:35.144Z,13.40
2018-12-12T03:22:04.178Z,13.00
2018-12-12T03:24:33.082Z,12.13
2018-12-12T03:27:01.983Z,14.53
2018-12-12T03:29:30.842Z,13.20
2018-12-12T03:31:59.769Z,12.53
2018-12-12T03:34:28.677Z,13.37
2018-12-12T03:36:57.589Z,14.30
2018-12-12T03:39:26.787Z,14.50
2018-12-12T03:41:55.930Z,14.37
2018-12-12T03:44:25.002Z,15.20
2018-12-12T03:46:53.850Z,13.47
2018-12-12T03:49:22.753Z,13.70
2018-12-12T03:51:51.658Z,13.67
2018-12-12T03:54:20.522Z,12.90
2018-12-12T03:56:51.247Z,13.57
2018-12-12T03:59:21.340Z,15.20
2018-12-12T04:01:50.711Z,12.97
2018-12-12T04:04:20.013Z,14.30
2018-12-12T04:06:48.917Z,13.30
2018-12-12T04:09:18.674Z,14.60
2018-12-12T04:11:47.888Z,13.27
2018-12-12T04:14:17.024Z,12.47
2018-12-12T04:16:46.957Z,13.10
2018-12-12T04:19:16.341Z,13.33
2018-12-12T04:21:46.014Z,13.60
2018-12-12T04:24:16.237Z,13.70
2018-12-12T04:26:46.154Z,13.43
2018-12-12T04:29:16.231Z,13.60
2018-12-12T04:31:45.841Z,13.37
2018-12-12T04:34:15.768Z,14.53
2018-12-12T04:36:45.577Z,13.83
2018-12-12T04:39:15.298Z,12.50
2018-12-12T04:41:45.222Z,14.53
2018-12-12T04:44:15.104Z,13.83
2018-12-12T04:46:44.973Z,14.17
2018-12-12T04:49:14.793Z,14.27
2018-12-12T04:51:44.580Z,14.60
2018-12-12T04:54:14.417Z,12.90
2018-12-12T04:56:45.435Z,13.80
2018-12-12T04:59:15.722Z,13.87
2018-12-12T05:01:45.823Z,14.47
2018-12-12T05:04:15.725Z,13.97
2018-12-12T05:06:47.159Z,14.43
2018-12-12T05:09:17.054Z,14.57
2018-12-12T05:11:47.072Z,14.60
2018-12-12T05:14:15.899Z,15.20
2018-12-12T05:16:44.791Z,14.60
2018-12-12T05:19:13.721Z,14.23
2018-12-12T05:21:42.615Z,13.93
2018-12-12T05:24:11.560Z,14.03
2018-12-12T05:26:40.421Z,13.83
2018-12-12T05:29:09.350Z,13.03
2018-12-12T05:31:38.369Z,12.70
2018-12-12T05:34:07.250Z,14.10
2018-12-12T05:36:36.251Z,14.03
2018-12-12T05:39:07.374Z,12.90
2018-12-12T05:41:38.252Z,13.47
2018-12-12T05:44:07.860Z,13.57
2018-12-12T05:46:41.821Z,13.17
2018-12-12T05:49:07.630Z,13.13
2018-12-12T05:51:36.585Z,12.50
2018-12-12T05:54:05.453Z,13.83
2018-12-12T05:56:34.323Z,13.07
2018-12-12T05:59:03.507Z,15.00
2018-12-12T06:01:32.464Z,14.57
2018-12-12T06:04:01.314Z,13.17
2018-12-12T06:06:30.501Z,13.67
2018-12-12T06:08:59.371Z,13.33
2018-12-12T06:11:28.277Z,12.93
2018-12-12T06:13:57.163Z,13.43
2018-12-12T06:16:26.450Z,13.00
2018-12-12T06:18:55.422Z,13.13
2018-12-12T06:21:24.351Z,13.37
2018-12-12T06:23:53.296Z,13.20
2018-12-12T06:26:22.955Z,13.00
2018-12-12T06:28:51.853Z,13.20
2018-12-12T06:31:20.814Z,12.83
2018-12-12T06:33:49.702Z,12.13
2018-12-12T06:36:20.500Z,11.63
2018-12-12T06:38:49.998Z,12.33
2018-12-12T06:41:18.888Z,11.53
2018-12-12T06:43:47.766Z,12.27
2018-12-12T06:46:16.614Z,12.30
2018-12-12T06:48:45.525Z,12.27
2018-12-12T06:51:16.146Z,12.97
2018-12-12T06:53:45.006Z,13.33
2018-12-12T06:56:13.972Z,12.80
2018-12-12T06:58:42.935Z,13.93
2018-12-12T07:01:11.850Z,13.40
2018-12-12T07:03:40.718Z,15.03
2018-12-12T07:06:09.608Z,16.80
2018-12-12T07:08:38.531Z,15.87
2018-12-12T07:11:07.482Z,15.60
2018-12-12T07:13:36.361Z,13.90
2018-12-12T07:16:05.529Z,13.93
2018-12-12T07:18:34.420Z,14.37
2018-12-12T07:21:03.380Z,16.33
2018-12-12T07:23:32.362Z,14.80
2018-12-12T07:26:01.294Z,14.33
2018-12-12T07:28:30.291Z,14.23
2018-12-12T07:30:59.199Z,15.20
2018-12-12T07:33:28.068Z,15.33
2018-12-12T07:35:59.626Z,14.27
2018-12-12T07:38:27.894Z,14.97
2018-12-12T07:40:56.771Z,14.03
2018-12-12T07:43:25.780Z,15.30
2018-12-12T07:45:54.816Z,14.77
2018-12-12T07:48:23.780Z,15.13
2018-12-12T07:50:52.718Z,14.10
2018-12-12T07:53:21.725Z,14.23
2018-12-12T07:55:50.574Z,13.70
2018-12-12T07:58:19.461Z,14.43
2018-12-12T08:00:48.366Z,13.73
2018-12-12T08:03:17.254Z,13.57
2018-12-12T08:05:46.203Z,13.10
2018-12-12T08:08:15.419Z,14.10
2018-12-12T08:10:44.342Z,13.30
2018-12-12T08:13:13.235Z,14.93
2018-12-12T08:15:42.102Z,13.37
2018-12-12T08:18:10.988Z,14.73
2018-12-12T08:20:39.868Z,13.37
2018-12-12T08:23:09.272Z,14.13
2018-12-12T08:25:38.956Z,14.33
2018-12-12T08:28:07.806Z,15.57
2018-12-12T08:30:36.691Z,14.30
2018-12-12T08:33:10.937Z,13.73
2018-12-12T08:35:36.202Z,15.23
2018-12-12T08:38:04.686Z,15.47
2018-12-12T08:40:33.203Z,15.03
2018-12-12T08:43:01.889Z,16.03
2018-12-12T08:45:30.429Z,14.97
2018-12-12T08:47:58.956Z,14.83
2018-12-12T08:50:27.566Z,15.10
2018-12-12T08:52:56.057Z,14.27
2018-12-12T08:55:24.575Z,15.17
2018-12-12T08:57:53.117Z,14.50
2018-12-12T09:00:21.617Z,15.37
2018-12-12T09:02:50.110Z,14.60
2018-12-12T09:05:18.612Z,15.13
2018-12-12T09:07:47.114Z,14.27
2018-12-12T09:10:15.630Z,15.93
2018-12-12T09:12:44.323Z,15.47
2018-12-12T09:15:12.849Z,14.47
2018-12-12T09:17:41.330Z,15.10
2018-12-12T09:20:09.849Z,15.40
2018-12-12T09:22:38.497Z,15.27
2018-12-12T09:25:07.531Z,17.27
2018-12-12T09:27:37.935Z,16.20
2018-12-12T09:30:07.463Z,15.97
2018-12-12T09:32:37.882Z,14.53
2018-12-12T09:35:07.721Z,16.20
2018-12-12T09:37:38.350Z,14.73
2018-12-12T09:40:07.002Z,17.60
2018-12-12T09:42:35.493Z,14.73
2018-12-12T09:45:04.940Z,13.57
2018-12-12T09:47:33.887Z,13.43
2018-12-12T09:50:02.380Z,14.27
2018-12-12T09:52:30.869Z,13.70
2018-12-12T09:54:59.354Z,12.93
2018-12-12T09:57:27.853Z,12.93
2018-12-12T09:59:56.373Z,13.10
2018-12-12T10:02:24.859Z,13.53
2018-12-12T10:04:53.365Z,13.07
2018-12-12T10:07:21.906Z,13.37
2018-12-12T10:09:50.421Z,11.80
2018-12-12T10:12:18.911Z,11.73
2018-12-12T10:14:47.385Z,11.03
2018-12-12T10:17:16.302Z,10.80
2018-12-12T10:19:44.805Z,9.43
2018-12-12T10:22:13.328Z,9.97
2018-12-12T10:24:41.826Z,10.17
2018-12-12T10:27:10.329Z,11.33
2018-12-12T10:29:38.918Z,10.33
2018-12-12T10:32:07.453Z,9.73
2018-12-12T10:34:35.953Z,9.60
2018-12-12T10:37:04.458Z,10.20
2018-12-12T10:39:32.977Z,8.67
2018-12-12T10:42:01.490Z,9.03
2018-12-12T10:44:29.944Z,8.23
2018-12-12T10:46:58.489Z,7.87
2018-12-12T10:49:26.961Z,7.77
2018-12-12T10:51:55.442Z,8.20
2018-12-12T10:54:23.929Z,7.00
2018-12-12T10:56:52.422Z,8.03
2018-12-12T10:59:20.910Z,7.43
2018-12-12T11:01:51.442Z,7.87
2018-12-12T11:04:19.987Z,8.87
2018-12-12T11:06:48.521Z,7.67
2018-12-12T11:09:17.023Z,7.73
2018-12-12T11:11:45.538Z,7.83
2018-12-12T11:14:14.008Z,8.37
2018-12-12T11:16:42.555Z,8.47
2018-12-12T11:19:11.043Z,8.90
2018-12-12T11:21:39.607Z,8.00
2018-12-12T11:24:08.255Z,8.40
2018-12-12T11:26:36.781Z,9.10
2018-12-12T11:29:05.322Z,8.70
2018-12-12T11:31:33.797Z,8.73
2018-12-12T11:34:02.301Z,8.50
2018-12-12T11:36:30.826Z,9.43
2018-12-12T11:38:59.433Z,9.10
2018-12-12T11:41:27.954Z,8.80
2018-12-12T11:43:56.505Z,8.17
2018-12-12T11:49:00.376Z,8.80
2018-12-12T11:51:29.966Z,8.17
2018-12-12T11:53:58.435Z,7.60
2018-12-12T11:56:27.271Z,7.10
2018-12-12T11:58:55.765Z,8.60
2018-12-12T12:01:24.323Z,7.73
2018-12-12T12:03:56.769Z,7.73
2018-12-12T12:06:23.370Z,7.83
2018-12-12T12:08:51.867Z,7.77
2018-12-12T12:11:20.481Z,8.27
2018-12-12T12:13:48.968Z,8.90
2018-12-12T12:16:17.451Z,8.33
2018-12-12T12:18:45.951Z,9.07
2018-12-12T12:21:14.552Z,7.10
2018-12-12T12:23:43.082Z,11.20
2018-12-12T12:26:14.357Z,12.73
2018-12-12T12:28:42.858Z,10.47
2018-12-12T12:31:11.362Z,10.73
2018-12-12T12:33:40.564Z,8.83
2018-12-12T12:36:09.130Z,12.30
2018-12-12T12:38:37.634Z,10.43
2018-12-12T12:41:06.128Z,10.57
2018-12-12T12:43:35.148Z,9.37
2018-12-12T12:46:03.634Z,15.33
2018-12-12T12:48:32.154Z,14.43
2018-12-12T12:51:00.635Z,11.10
2018-12-12T12:53:29.156Z,10.50
2018-12-12T12:55:57.773Z,13.47
2018-12-12T12:58:26.605Z,12.90
2018-12-12T13:00:55.486Z,8.50
2018-12-12T13:03:24.353Z,8.13
2018-12-12T13:05:53.173Z,7.97
2018-12-12T13:08:22.497Z,8.13
2018-12-12T13:10:51.478Z,9.47
2018-12-12T13:13:21.191Z,8.60
2018-12-12T13:15:50.631Z,7.77
2018-12-12T13:18:19.679Z,7.23
2018-12-12T13:20:49.748Z,7.07
2018-12-12T13:23:18.593Z,7.93
2018-12-12T13:25:47.623Z,7.00
2018-12-12T13:28:16.466Z,6.90
2018-12-12T13:30:46.374Z,7.90
2018-12-12T13:33:15.370Z,6.77
2018-12-12T13:35:44.204Z,7.03
2018-12-12T13:38:13.138Z,7.73
2018-12-12T13:40:41.996Z,7.10
2018-12-12T13:43:10.934Z,7.13
2018-12-12T13:45:39.863Z,7.50
2018-12-12T13:48:09.756Z,6.63
2018-12-12T13:50:38.628Z,8.27
2018-12-12T13:53:07.478Z,7.57
2018-12-12T13:55:36.362Z,7.20
2018-12-12T13:58:05.734Z,7.77
2018-12-12T14:00:39.070Z,6.47
2018-12-12T14:03:07.603Z,7.53
2018-12-12T14:05:37.082Z,6.90
2018-12-12T14:08:06.067Z,8.40
2018-12-12T14:10:36.549Z,7.60
2018-12-12T14:13:06.299Z,6.80
2018-12-12T14:15:35.139Z,7.23
2018-12-12T14:18:04.171Z,7.23
2018-12-12T14:20:33.025Z,7.37
2018-12-12T14:23:01.934Z,6.23
2018-12-12T14:25:30.806Z,6.40
2018-12-12T14:27:59.705Z,6.93
2018-12-12T14:30:28.663Z,7.07
2018-12-12T14:32:57.606Z,8.67
2018-12-12T14:35:26.556Z,7.50
2018-12-12T14:37:55.434Z,10.13
2018-12-12T14:40:24.387Z,7.10
2018-12-12T14:42:53.252Z,7.10
2018-12-12T14:45:22.113Z,7.07
2018-12-12T14:47:51.612Z,6.27
2018-12-12T14:50:20.511Z,5.97
2018-12-12T14:52:49.371Z,6.77
2018-12-12T14:55:18.773Z,7.37
2018-12-12T14:57:47.631Z,6.77
2018-12-12T15:00:16.518Z,6.37
2018-12-12T15:02:45.433Z,8.27
2018-12-12T15:11:14.986Z,10.27
2018-12-12T15:13:43.823Z,6.13
2018-12-12T15:16:12.690Z,6.10
2018-12-12T15:18:41.608Z,6.53
2018-12-12T15:21:10.525Z,6.40
2018-12-12T15:23:39.393Z,7.27
2018-12-12T15:26:08.237Z,9.23
2018-12-12T15:28:37.068Z,6.20
2018-12-12T15:31:05.927Z,6.37
2018-12-12T15:33:34.808Z,7.27
2018-12-12T15:36:04.793Z,6.13
2018-12-12T15:38:33.613Z,6.07
2018-12-12T15:41:02.468Z,9.00
2018-12-12T15:43:31.317Z,5.67
2018-12-12T15:46:00.190Z,6.27
2018-12-12T15:48:29.089Z,7.37
2018-12-12T15:50:57.968Z,6.20
2018-12-12T15:53:26.797Z,5.10
2018-12-12T15:55:55.621Z,6.47
2018-12-12T15:58:24.445Z,6.50
2018-12-12T16:00:53.334Z,5.63
2018-12-12T16:03:22.264Z,5.33
2018-12-12T16:05:51.100Z,6.27
2018-12-12T16:08:19.942Z,5.67
2018-12-12T16:10:48.777Z,5.73
2018-12-12T16:13:17.628Z,5.30
2018-12-12T16:15:47.335Z,5.17
2018-12-12T16:18:16.185Z,5.60
2018-12-12T16:20:45.017Z,6.70
2018-12-12T16:23:13.861Z,5.57
2018-12-12T16:25:42.707Z,5.90
2018-12-12T16:28:11.522Z,6.13
2018-12-12T16:30:40.371Z,6.10
2018-12-12T16:33:09.215Z,6.57
2018-12-12T16:35:38.058Z,9.30
2018-12-12T16:38:06.926Z,6.40
2018-12-12T16:40:35.786Z,7.63
2018-12-12T16:43:04.716Z,7.33
2018-12-12T16:45:33.565Z,7.63
2018-12-12T16:48:02.394Z,5.60
2018-12-12T16:50:31.252Z,6.03
2018-12-12T16:53:00.167Z,7.20
2018-12-12T16:55:29.575Z,6.77
2018-12-12T16:57:58.460Z,5.50
2018-12-12T17:00:27.365Z,7.20
2018-12-12T17:02:56.293Z,6.50
2018-12-12T17:05:25.177Z,5.97
2018-12-12T17:07:54.063Z,5.60
2018-12-12T17:10:22.979Z,7.63
2018-12-12T17:12:51.862Z,6.43
2018-12-12T17:16:24.278Z,7.00
2018-12-12T17:18:53.273Z,5.37
2018-12-12T17:21:22.145Z,6.50
2018-12-12T17:23:51.014Z,6.47
2018-12-12T17:26:19.947Z,5.07
2018-12-12T17:28:48.804Z,5.60
2018-12-12T17:31:17.685Z,6.67
2018-12-12T17:33:46.520Z,5.37
2018-12-12T17:36:15.422Z,5.77
2018-12-12T17:38:44.318Z,5.93
2018-12-12T17:41:13.202Z,8.93
2018-12-12T17:43:42.176Z,9.87
2018-12-12T17:46:11.020Z,8.60
2018-12-12T17:48:39.910Z,5.60
2018-12-12T17:51:08.803Z,6.93
2018-12-12T17:53:37.669Z,9.00
2018-12-12T17:56:06.541Z,6.40
2018-12-12T17:58:35.425Z,7.07
2018-12-12T18:01:04.573Z,6.83
2018-12-12T18:03:33.521Z,6.27
2018-12-12T18:06:02.452Z,5.57
2018-12-12T18:08:31.331Z,5.60
2018-12-12T18:11:00.216Z,5.67
2018-12-12T18:13:29.095Z,6.30
2018-12-12T18:15:57.978Z,6.10
2018-12-12T18:18:26.813Z,5.57
2018-12-12T18:20:55.729Z,5.40
2018-12-12T18:23:24.939Z,5.07
2018-12-12T18:25:53.815Z,6.17
2018-12-12T18:28:22.669Z,5.50
2018-12-12T18:30:51.548Z,4.97
2018-12-12T18:33:20.380Z,6.07
2018-12-12T18:35:49.303Z,5.03
2018-12-12T18:38:18.186Z,5.17
2018-12-12T18:40:47.081Z,5.67
2018-12-12T18:43:15.959Z,5.87
2018-12-12T18:45:44.850Z,6.30
2018-12-12T18:48:13.776Z,6.83
2018-12-12T18:50:42.696Z,6.37
2018-12-12T18:53:11.985Z,6.90
2018-12-12T18:55:43.384Z,7.23
2018-12-12T18:58:12.267Z,7.10
2018-12-12T19:00:41.201Z,7.37
2018-12-12T19:03:10.113Z,9.13
2018-12-12T19:05:39.002Z,7.93
2018-12-12T19:08:07.924Z,8.27
2018-12-12T19:10:36.829Z,7.97
2018-12-12T19:13:05.711Z,8.57
2018-12-12T19:15:34.627Z,7.20
2018-12-12T19:18:03.656Z,7.67
2018-12-12T19:20:32.553Z,7.80
2018-12-12T19:23:01.998Z,8.00
2018-12-12T19:25:30.965Z,7.80
2018-12-12T19:27:59.855Z,7.77
2018-12-12T19:30:28.808Z,7.40
2018-12-12T19:32:57.704Z,6.07
2018-12-12T19:35:26.792Z,6.57
2018-12-12T19:37:55.825Z,7.00
2018-12-12T19:40:24.751Z,9.53
2018-12-12T19:42:53.731Z,6.77
2018-12-12T19:45:23.678Z,7.50
2018-12-12T19:47:52.728Z,6.93
2018-12-12T19:50:21.577Z,6.37
2018-12-12T19:52:50.503Z,6.40
2018-12-12T19:55:19.409Z,6.67
2018-12-12T19:57:48.345Z,10.10
2018-12-12T20:00:17.704Z,6.03
2018-12-12T20:02:46.682Z,9.07
2018-12-12T20:05:16.861Z,6.70
2018-12-12T20:07:46.294Z,5.67
2018-12-12T20:10:15.583Z,5.80
2018-12-12T20:12:44.598Z,5.87
2018-12-12T20:15:19.030Z,6.17
2018-12-12T20:17:48.542Z,5.97
2018-12-12T20:20:17.922Z,5.43
2018-12-12T20:22:47.597Z,5.70
2018-12-12T20:25:16.757Z,6.33
2018-12-12T20:27:46.130Z,5.83
2018-12-12T20:30:15.350Z,5.97
2018-12-12T20:32:44.231Z,6.30
2018-12-12T20:35:13.236Z,5.80
2018-12-12T20:37:42.325Z,6.37
2018-12-12T20:40:11.321Z,12.53
2018-12-12T20:42:40.378Z,10.63
2018-12-12T20:45:09.288Z,9.70
2018-12-12T20:47:38.367Z,7.40
2018-12-12T20:50:08.144Z,5.63
2018-12-12T20:52:37.273Z,13.87
2018-12-12T20:55:06.359Z,10.37
2018-12-12T20:57:35.416Z,8.30
2018-12-12T21:00:04.775Z,10.37
2018-12-12T21:02:33.768Z,7.97
2018-12-12T21:05:03.195Z,12.27
2018-12-12T21:07:32.190Z,9.40
2018-12-12T21:10:01.095Z,7.07
2018-12-12T21:12:29.987Z,10.50
2018-12-12T21:14:58.949Z,10.20
2018-12-12T21:17:28.162Z,6.57
2018-12-12T21:19:57.163Z,10.70
2018-12-12T21:22:26.093Z,7.20
2018-12-12T21:24:55.028Z,5.43
2018-12-12T21:27:24.138Z,5.70
2018-12-12T21:29:53.461Z,10.20
2018-12-12T21:32:22.405Z,7.03
2018-12-12T21:34:53.429Z,6.83
2018-12-12T21:37:22.281Z,8.60
2018-12-12T21:39:51.232Z,5.70
2018-12-12T21:42:20.138Z,12.77
2018-12-12T21:44:48.985Z,7.33
2018-12-12T21:47:17.981Z,6.97
2018-12-12T21:49:46.807Z,7.30
2018-12-12T21:52:15.685Z,6.93
2018-12-12T21:54:44.727Z,11.57
2018-12-12T21:57:13.731Z,13.43
2018-12-12T21:59:42.673Z,6.37
2018-12-12T22:02:11.648Z,5.23
2018-12-12T22:04:40.647Z,5.40
2018-12-12T22:07:09.575Z,6.60
2018-12-12T22:09:38.504Z,5.60
2018-12-12T22:12:07.506Z,9.17
2018-12-12T22:14:36.486Z,6.73
2018-12-12T22:17:05.411Z,5.87
2018-12-12T22:19:34.280Z,6.30
2018-12-12T22:22:03.285Z,14.03
2018-12-12T22:24:32.145Z,11.03
2018-12-12T22:27:01.522Z,7.03
2018-12-12T22:29:30.586Z,5.53
2018-12-12T22:31:59.495Z,5.77
2018-12-12T22:34:29.619Z,5.80
2018-12-12T22:36:58.487Z,6.10
2018-12-12T22:39:27.356Z,5.60
2018-12-12T22:41:56.304Z,5.73
2018-12-12T22:44:25.231Z,5.43
2018-12-12T22:46:54.451Z,5.77
2018-12-12T22:49:24.282Z,7.87
2018-12-12T22:51:53.270Z,6.40
2018-12-12T22:54:22.169Z,7.13
2018-12-12T22:56:51.015Z,8.53
2018-12-12T22:59:19.905Z,6.83
2018-12-12T23:01:48.874Z,6.23
2018-12-12T23:04:17.730Z,7.33
2018-12-12T23:06:46.594Z,6.33
2018-12-12T23:09:15.616Z,6.83
2018-12-12T23:11:44.429Z,7.40
2018-12-12T23:14:13.503Z,7.17
2018-12-12T23:16:42.405Z,5.57
2018-12-12T23:19:11.230Z,8.27
2018-12-12T23:21:40.118Z,6.00
2018-12-12T23:24:08.944Z,6.10
2018-12-12T23:26:37.823Z,6.73
2018-12-12T23:29:06.697Z,5.60
2018-12-12T23:31:35.573Z,8.70
2018-12-12T23:34:04.538Z,5.83
2018-12-12T23:36:33.385Z,5.80
2018-12-12T23:39:02.344Z,5.67
2018-12-12T23:41:31.210Z,4.93
2018-12-12T23:44:00.183Z,5.00
2018-12-12T23:46:28.992Z,5.00
2018-12-12T23:48:57.833Z,5.27
2018-12-12T23:51:26.699Z,5.33
2018-12-12T23:53:55.610Z,5.00
2018-12-12T23:56:24.608Z,19.73
2018-12-12T23:58:53.489Z,13.07
